createdAt,value
2022-08-21T00:02:05.715Z,97.40
2022-08-21T00:04:33.921Z,97.40
2022-08-21T00:07:02.510Z,97.40
2022-08-21T00:09:32.067Z,97.40
2022-08-21T00:12:00.316Z,97.40
2022-08-21T00:14:28.636Z,97.40
2022-08-21T00:17:01.004Z,97.40
2022-08-21T00:19:29.628Z,97.40
2022-08-21T00:21:58.046Z,97.40
2022-08-21T00:24:27.628Z,97.40
2022-08-21T00:26:57.302Z,97.40
2022-08-21T00:29:25.497Z,97.40
2022-08-21T00:31:54.349Z,97.40
2022-08-21T00:34:22.767Z,97.40
2022-08-21T00:36:51.254Z,97.40
2022-08-21T00:39:19.679Z,97.40
2022-08-21T00:41:47.960Z,97.40
2022-08-21T00:44:17.742Z,97.40
2022-08-21T00:46:46.919Z,97.40
2022-08-21T00:49:15.391Z,97.40
2022-08-21T00:51:49.767Z,97.40
2022-08-21T00:54:20.899Z,97.40
2022-08-21T00:56:55.265Z,97.40
2022-08-21T00:59:26.767Z,97.40
2022-08-21T01:01:55.224Z,97.40
2022-08-21T01:04:24.642Z,97.40
2022-08-21T01:06:53.381Z,97.40
2022-08-21T01:09:21.756Z,97.40
2022-08-21T01:11:50.365Z,97.40
2022-08-21T01:14:19.347Z,97.40
2022-08-21T01:16:54.178Z,97.40
2022-08-21T01:19:23.573Z,97.40
2022-08-21T01:21:54.577Z,97.40
2022-08-21T01:24:23.175Z,97.40
2022-08-21T01:26:53.263Z,97.40
2022-08-21T01:29:32.512Z,97.40
2022-08-21T01:32:04.334Z,97.40
2022-08-21T01:34:32.999Z,97.40
2022-08-21T01:37:03.668Z,97.40
2022-08-21T01:39:32.323Z,97.40
2022-08-21T01:42:00.490Z,97.40
2022-08-21T01:44:29.531Z,97.40
2022-08-21T01:46:59.843Z,97.40
2022-08-21T01:49:28.540Z,97.40
2022-08-21T01:51:56.788Z,97.40
2022-08-21T01:54:26.287Z,97.40
2022-08-21T01:56:55.890Z,97.40
2022-08-21T01:59:25.947Z,97.40
2022-08-21T02:01:55.327Z,97.40
2022-08-21T02:04:24.236Z,97.40
2022-08-21T02:06:52.707Z,97.40
2022-08-21T02:09:22.557Z,97.40
2022-08-21T02:11:52.352Z,97.40
2022-08-21T02:14:32.629Z,97.40
2022-08-21T02:17:03.404Z,97.40
2022-08-21T02:19:39.478Z,97.40
2022-08-21T02:22:10.082Z,97.40
2022-08-21T02:24:54.783Z,97.40
2022-08-21T02:27:27.403Z,97.40
2022-08-21T02:29:58.451Z,97.40
2022-08-21T02:32:27.286Z,97.40
2022-08-21T02:34:55.723Z,97.40
2022-08-21T02:37:24.720Z,97.40
2022-08-21T02:39:53.094Z,97.40
2022-08-21T02:42:21.361Z,97.40
2022-08-21T02:44:51.147Z,97.40
2022-08-21T02:47:19.474Z,97.40
2022-08-21T02:49:47.766Z,97.40
2022-08-21T02:52:15.995Z,97.40
2022-08-21T02:54:44.212Z,97.40
2022-08-21T02:57:12.480Z,97.40
2022-08-21T02:59:41.674Z,97.40
2022-08-21T03:02:12.446Z,97.40
2022-08-21T03:04:45.979Z,97.40
2022-08-21T03:07:16.168Z,97.40
2022-08-21T03:09:45.587Z,97.40
2022-08-21T03:12:23.943Z,97.40
2022-08-21T03:14:52.125Z,97.40
2022-08-21T03:17:29.501Z,97.40
2022-08-21T03:19:59.003Z,97.40
2022-08-21T03:22:27.574Z,97.40
2022-08-21T03:24:58.399Z,97.40
2022-08-21T03:27:27.670Z,97.40
2022-08-21T03:29:58.019Z,97.40
2022-08-21T03:32:30.142Z,97.40
2022-08-21T03:34:58.467Z,97.40
2022-08-21T03:37:27.051Z,97.40
2022-08-21T03:39:55.638Z,97.40
2022-08-21T03:42:24.177Z,97.40
2022-08-21T03:44:53.084Z,97.40
2022-08-21T03:47:22.866Z,97.40
2022-08-21T03:49:53.160Z,97.40
2022-08-21T03:52:23.605Z,97.40
2022-08-21T03:54:52.104Z,97.40
2022-08-21T03:57:20.744Z,97.40
2022-08-21T03:59:49.015Z,97.40
2022-08-21T04:02:21.531Z,97.40
2022-08-21T04:04:49.826Z,97.40
2022-08-21T04:07:19.513Z,97.40
2022-08-21T04:09:47.717Z,97.40
2022-08-21T04:12:15.888Z,97.40
2022-08-21T04:14:44.222Z,97.40
2022-08-21T04:17:12.346Z,97.40
2022-08-21T04:19:40.844Z,97.40
2022-08-21T04:22:08.969Z,97.40
2022-08-21T04:24:38.953Z,97.40
2022-08-21T04:27:07.212Z,97.40
2022-08-21T04:29:39.829Z,97.40
2022-08-21T04:32:08.827Z,97.40
2022-08-21T04:34:37.329Z,97.40
2022-08-21T04:37:06.083Z,97.40
2022-08-21T04:39:34.436Z,97.40
2022-08-21T04:42:04.113Z,97.40
2022-08-21T04:44:35.033Z,97.40
2022-08-21T04:47:03.652Z,97.40
2022-08-21T04:49:32.467Z,97.40
2022-08-21T04:52:01.192Z,97.40
2022-08-21T04:54:35.060Z,97.40
2022-08-21T04:57:09.737Z,97.40
2022-08-21T04:59:42.168Z,97.40
2022-08-21T05:02:12.089Z,97.40
2022-08-21T05:04:49.232Z,97.40
2022-08-21T05:07:41.648Z,97.40
2022-08-21T05:10:12.548Z,97.40
2022-08-21T05:12:44.649Z,97.40
2022-08-21T05:15:14.318Z,97.40
2022-08-21T05:17:43.750Z,97.40
2022-08-21T05:20:21.800Z,97.40
2022-08-21T05:22:50.606Z,97.40
2022-08-21T05:25:19.412Z,97.40
2022-08-21T05:27:56.089Z,97.40
2022-08-21T05:30:33.009Z,97.40
2022-08-21T05:33:06.333Z,97.40
2022-08-21T05:35:35.707Z,97.40
2022-08-21T05:38:16.607Z,97.40
2022-08-21T05:40:46.951Z,97.40
2022-08-21T05:43:17.669Z,97.40
2022-08-21T05:45:45.974Z,97.40
2022-08-21T05:48:18.627Z,97.40
2022-08-21T05:50:49.320Z,97.40
2022-08-21T05:53:20.562Z,97.40
2022-08-21T05:55:49.965Z,97.40
2022-08-21T05:58:23.855Z,97.40
2022-08-21T06:00:53.940Z,97.40
2022-08-21T06:03:25.689Z,97.40
2022-08-21T06:05:55.418Z,97.40
2022-08-21T06:08:25.667Z,97.40
2022-08-21T06:10:56.456Z,97.40
2022-08-21T06:13:27.336Z,97.40
2022-08-21T06:16:07.250Z,97.40
2022-08-21T06:18:36.430Z,97.40
2022-08-21T06:21:05.735Z,97.40
2022-08-21T06:23:35.267Z,97.40
2022-08-21T06:26:07.140Z,97.40
2022-08-21T06:28:39.210Z,97.40
2022-08-21T06:31:15.950Z,97.40
2022-08-21T06:33:44.877Z,97.40
2022-08-21T06:36:13.688Z,97.40
2022-08-21T06:38:42.801Z,97.40
2022-08-21T06:41:23.956Z,97.40
2022-08-21T06:43:54.898Z,97.40
2022-08-21T06:46:24.279Z,97.40
2022-08-21T06:48:52.601Z,97.40
2022-08-21T06:51:22.443Z,97.40
2022-08-21T06:53:51.708Z,97.40
2022-08-21T06:56:20.344Z,97.40
2022-08-21T06:58:53.291Z,97.40
2022-08-21T07:01:24.829Z,97.40
2022-08-21T07:03:54.054Z,97.40
2022-08-21T07:06:22.795Z,97.40
2022-08-21T07:08:51.364Z,97.40
2022-08-21T07:11:24.290Z,97.40
2022-08-21T07:13:57.031Z,97.40
2022-08-21T07:16:25.866Z,97.40
2022-08-21T07:18:54.331Z,97.40
2022-08-21T07:21:26.035Z,97.40
2022-08-21T07:23:55.141Z,97.40
2022-08-21T07:26:27.675Z,97.40
2022-08-21T07:28:58.322Z,97.40
2022-08-21T07:31:28.396Z,97.40
2022-08-21T07:33:57.477Z,97.40
2022-08-21T07:36:27.231Z,97.40
2022-08-21T07:38:56.027Z,97.40
2022-08-21T07:41:27.429Z,97.40
2022-08-21T07:43:58.209Z,97.40
2022-08-21T07:46:27.714Z,97.40
2022-08-21T07:48:56.378Z,94.90
2022-08-21T07:51:29.117Z,96.40
2022-08-21T07:53:59.890Z,94.90
2022-08-21T07:56:28.975Z,93.90
2022-08-21T07:58:58.792Z,93.90
2022-08-21T08:01:27.906Z,92.40
2022-08-21T08:03:56.241Z,91.10
2022-08-21T08:06:25.067Z,88.80
2022-08-21T08:08:53.492Z,86.40
2022-08-21T08:11:21.800Z,83.00
2022-08-21T08:13:53.345Z,77.10
2022-08-21T08:16:23.051Z,74.30
2022-08-21T08:18:52.380Z,70.40
2022-08-21T08:21:21.914Z,73.20
2022-08-21T08:23:50.806Z,73.00
2022-08-21T08:26:19.597Z,67.90
2022-08-21T08:28:48.669Z,66.80
2022-08-21T08:31:17.251Z,65.70
2022-08-21T08:33:47.024Z,64.20
2022-08-21T08:36:17.062Z,59.60
2022-08-21T08:38:46.585Z,59.90
2022-08-21T08:41:20.001Z,56.30
2022-08-21T08:43:54.386Z,60.30
2022-08-21T08:46:33.452Z,55.80
2022-08-21T08:49:10.039Z,56.00
2022-08-21T08:51:45.549Z,54.30
2022-08-21T08:54:19.979Z,48.80
2022-08-21T08:56:48.639Z,44.90
2022-08-21T08:59:21.214Z,46.50
2022-08-21T09:01:49.561Z,45.20
2022-08-21T09:04:26.580Z,42.70
2022-08-21T09:07:13.560Z,39.50
2022-08-21T09:09:57.902Z,43.50
2022-08-21T09:12:49.536Z,42.90
2022-08-21T09:15:29.210Z,43.30
2022-08-21T09:18:29.946Z,35.60
2022-08-21T09:21:13.512Z,38.60
2022-08-21T09:23:52.360Z,37.90
2022-08-21T09:26:23.396Z,36.50
2022-08-21T09:28:56.865Z,34.80
2022-08-21T09:31:29.311Z,32.80
2022-08-21T09:34:03.778Z,30.10
2022-08-21T09:36:41.592Z,32.20
2022-08-21T09:39:12.277Z,30.70
2022-08-21T09:41:41.751Z,32.20
2022-08-21T09:44:11.081Z,32.10
2022-08-21T09:46:39.316Z,31.90
2022-08-21T09:49:14.865Z,29.20
2022-08-21T09:51:55.807Z,29.00
2022-08-21T09:54:31.973Z,27.50
2022-08-21T09:57:24.623Z,29.90
2022-08-21T09:59:52.994Z,28.40
2022-08-21T10:02:30.415Z,24.90
2022-08-21T10:05:06.448Z,28.60
2022-08-21T10:07:40.210Z,27.20
2022-08-21T10:10:17.083Z,24.90
2022-08-21T10:12:56.053Z,26.70
2022-08-21T10:15:46.424Z,24.70
2022-08-21T10:18:24.520Z,25.60
2022-08-21T10:21:04.362Z,26.50
2022-08-21T10:24:02.469Z,25.30
2022-08-21T10:26:46.333Z,25.60
2022-08-21T10:29:30.489Z,26.30
2022-08-21T10:32:15.677Z,24.50
2022-08-21T10:35:07.411Z,23.00
2022-08-21T10:37:51.588Z,24.20
2022-08-21T10:40:29.362Z,24.70
2022-08-21T10:43:29.521Z,24.70
2022-08-21T10:46:05.284Z,22.60
2022-08-21T10:48:39.881Z,23.20
2022-08-21T10:51:16.472Z,22.10
2022-08-21T10:54:00.238Z,22.50
2022-08-21T10:56:33.538Z,22.50
2022-08-21T10:59:22.213Z,22.70
2022-08-21T11:01:58.808Z,21.70
2022-08-21T11:04:41.711Z,21.70
2022-08-21T11:07:23.404Z,20.00
2022-08-21T11:09:56.965Z,22.20
2022-08-21T11:12:33.497Z,22.40
2022-08-21T11:15:28.698Z,21.00
2022-08-21T11:18:06.451Z,22.90
2022-08-21T11:20:43.945Z,22.70
2022-08-21T11:23:19.599Z,21.50
2022-08-21T11:25:53.940Z,19.70
2022-08-21T11:28:30.821Z,21.40
2022-08-21T11:31:20.938Z,22.00
2022-08-21T11:34:03.413Z,21.40
2022-08-21T11:36:45.239Z,24.00
2022-08-21T11:39:25.937Z,21.70
2022-08-21T11:42:08.742Z,23.30
2022-08-21T11:44:51.888Z,21.80
2022-08-21T11:47:33.455Z,21.30
2022-08-21T11:50:34.484Z,21.60
2022-08-21T11:53:10.713Z,21.30
2022-08-21T11:55:45.448Z,22.50
2022-08-21T11:58:20.811Z,19.60
2022-08-21T12:00:56.530Z,18.70
2022-08-21T12:03:30.344Z,19.40
2022-08-21T12:06:09.899Z,20.90
2022-08-21T12:08:41.283Z,21.50
2022-08-21T12:11:29.768Z,22.50
2022-08-21T12:14:13.064Z,22.20
2022-08-21T12:16:45.091Z,21.80
2022-08-21T12:19:16.743Z,20.40
2022-08-21T12:21:55.458Z,20.30
2022-08-21T12:24:38.914Z,19.80
2022-08-21T12:27:30.484Z,19.30
2022-08-21T12:30:03.294Z,20.90
2022-08-21T12:33:00.501Z,20.10
2022-08-21T12:35:38.108Z,19.20
2022-08-21T12:38:17.796Z,19.20
2022-08-21T12:40:51.528Z,20.00
2022-08-21T12:43:28.144Z,21.10
2022-08-21T12:45:56.391Z,19.20
2022-08-21T12:48:33.085Z,19.80
2022-08-21T12:51:12.170Z,20.20
2022-08-21T12:53:47.615Z,18.30
2022-08-21T12:56:19.398Z,18.70
2022-08-21T12:58:50.744Z,18.60
2022-08-21T13:01:25.691Z,17.50
2022-08-21T13:04:04.856Z,20.30
2022-08-21T13:06:39.617Z,19.90
2022-08-21T13:09:12.322Z,19.10
2022-08-21T13:11:42.333Z,19.90
2022-08-21T13:14:20.832Z,20.80
2022-08-21T13:16:50.876Z,20.20
2022-08-21T13:19:24.152Z,19.50
2022-08-21T13:21:53.745Z,19.80
2022-08-21T13:24:43.354Z,19.20
2022-08-21T13:27:23.162Z,20.40
2022-08-21T13:30:12.026Z,20.00
2022-08-21T13:32:44.593Z,19.90
2022-08-21T13:35:20.204Z,19.30
2022-08-21T13:37:52.016Z,20.00
2022-08-21T13:40:30.662Z,20.80
2022-08-21T13:42:59.835Z,20.00
2022-08-21T13:45:34.129Z,19.70
2022-08-21T13:48:06.329Z,21.10
2022-08-21T13:50:38.805Z,19.80
2022-08-21T13:53:20.489Z,19.30
2022-08-21T13:55:48.881Z,18.70
2022-08-21T13:58:27.813Z,18.20
2022-08-21T14:00:57.524Z,18.70
2022-08-21T14:03:35.929Z,19.60
2022-08-21T14:06:14.469Z,18.60
2022-08-21T14:08:44.017Z,18.70
2022-08-21T14:11:14.716Z,16.50
2022-08-21T14:13:46.246Z,18.30
2022-08-21T14:16:21.647Z,19.00
2022-08-21T14:18:55.318Z,18.90
2022-08-21T14:21:34.751Z,16.60
2022-08-21T14:24:11.288Z,17.80
2022-08-21T14:26:48.527Z,18.20
2022-08-21T14:29:20.157Z,18.20
2022-08-21T14:31:54.902Z,16.00
2022-08-21T14:34:24.691Z,18.10
2022-08-21T14:37:12.016Z,17.10
2022-08-21T14:39:49.075Z,18.00
2022-08-21T14:42:17.533Z,17.50
2022-08-21T14:44:45.837Z,18.50
2022-08-21T14:47:14.127Z,18.40
2022-08-21T14:49:42.441Z,19.00
2022-08-21T14:52:12.478Z,20.00
2022-08-21T14:54:40.696Z,17.70
2022-08-21T14:57:13.523Z,17.90
2022-08-21T14:59:42.289Z,18.20
2022-08-21T15:02:11.498Z,15.50
2022-08-21T15:04:41.756Z,15.80
2022-08-21T15:07:11.600Z,16.00
2022-08-21T15:09:39.912Z,17.40
2022-08-21T15:12:10.795Z,18.70
2022-08-21T15:14:42.029Z,19.70
2022-08-21T15:17:19.795Z,19.60
2022-08-21T15:19:51.165Z,21.50
2022-08-21T15:22:27.613Z,21.20
2022-08-21T15:24:56.371Z,21.30
2022-08-21T15:27:24.681Z,21.50
2022-08-21T15:29:55.050Z,24.20
2022-08-21T15:32:27.084Z,23.20
2022-08-21T15:34:56.409Z,24.00
2022-08-21T15:37:26.802Z,23.40
2022-08-21T15:39:55.729Z,25.50
2022-08-21T15:42:24.697Z,23.20
2022-08-21T15:44:53.823Z,24.20
2022-08-21T15:47:24.911Z,26.20
2022-08-21T15:49:53.101Z,27.10
2022-08-21T15:52:35.292Z,27.20
2022-08-21T15:55:03.600Z,26.80
2022-08-21T15:57:31.832Z,26.80
2022-08-21T16:00:11.990Z,27.20
2022-08-21T16:02:44.778Z,27.10
2022-08-21T16:05:17.276Z,27.20
2022-08-21T16:07:48.354Z,26.80
2022-08-21T16:10:20.786Z,28.50
2022-08-21T16:12:55.655Z,27.90
2022-08-21T16:15:25.013Z,28.50
2022-08-21T16:17:54.710Z,29.10
2022-08-21T16:20:28.138Z,28.40
2022-08-21T16:22:59.555Z,27.30
2022-08-21T16:25:28.473Z,26.80
2022-08-21T16:28:03.828Z,27.80
2022-08-21T16:30:32.606Z,28.10
2022-08-21T16:33:06.910Z,28.90
2022-08-21T16:35:35.539Z,30.90
2022-08-21T16:38:05.372Z,31.30
2022-08-21T16:40:36.839Z,29.60
2022-08-21T16:43:28.674Z,30.60
2022-08-21T16:46:21.499Z,30.60
2022-08-21T16:48:55.299Z,30.20
2022-08-21T16:52:12.885Z,29.50
2022-08-21T16:55:32.522Z,30.20
2022-08-21T16:58:06.357Z,30.60
2022-08-21T17:00:37.133Z,29.20
2022-08-21T17:03:11.972Z,30.90
2022-08-21T17:05:40.374Z,34.50
2022-08-21T17:08:09.139Z,35.60
2022-08-21T17:10:41.780Z,35.30
2022-08-21T17:13:14.252Z,35.70
2022-08-21T17:18:29.788Z,36.50
2022-08-21T17:20:58.388Z,37.90
2022-08-21T17:23:26.699Z,37.90
2022-08-21T17:25:56.919Z,38.30
2022-08-21T17:28:27.962Z,38.80
2022-08-21T17:30:58.995Z,39.50
2022-08-21T17:33:30.770Z,39.70
2022-08-21T17:35:59.056Z,39.70
2022-08-21T17:38:27.851Z,40.30
2022-08-21T17:40:57.612Z,41.20
2022-08-21T17:43:26.924Z,41.20
2022-08-21T17:45:55.309Z,42.00
2022-08-21T17:48:25.532Z,43.00
2022-08-21T17:50:53.928Z,43.30
2022-08-21T17:53:22.144Z,44.10
2022-08-21T17:55:51.055Z,44.30
2022-08-21T17:58:20.830Z,44.30
2022-08-21T18:00:53.343Z,44.30
2022-08-21T18:03:28.787Z,44.70
2022-08-21T18:06:03.798Z,46.70
2022-08-21T18:08:34.325Z,47.20
2022-08-21T18:11:03.058Z,49.00
2022-08-21T18:13:36.723Z,47.90
2022-08-21T18:16:06.093Z,48.80
2022-08-21T18:18:41.772Z,49.00
2022-08-21T18:21:10.428Z,50.20
2022-08-21T18:23:43.388Z,51.60
2022-08-21T18:26:16.214Z,52.20
2022-08-21T18:28:46.040Z,54.20
2022-08-21T18:31:15.070Z,55.40
2022-08-21T18:33:57.676Z,56.00
2022-08-21T18:36:32.043Z,56.90
2022-08-21T18:39:38.348Z,56.90
2022-08-21T18:42:18.038Z,59.20
2022-08-21T18:44:51.685Z,61.40
2022-08-21T18:47:25.633Z,62.90
2022-08-21T18:49:53.862Z,64.60
2022-08-21T18:52:38.348Z,66.10
2022-08-21T18:55:13.485Z,67.20
2022-08-21T18:57:45.854Z,70.40
2022-08-21T19:00:50.517Z,68.30
2022-08-21T19:03:25.548Z,68.70
2022-08-21T19:05:54.865Z,71.80
2022-08-21T19:08:27.248Z,71.50
2022-08-21T19:11:01.133Z,74.60
2022-08-21T19:13:30.812Z,73.70
2022-08-21T19:16:03.754Z,73.90
2022-08-21T19:18:35.512Z,73.90
2022-08-21T19:21:04.310Z,75.20
2022-08-21T19:23:34.933Z,80.00
2022-08-21T19:26:07.295Z,81.00
2022-08-21T19:28:40.036Z,78.40
2022-08-21T19:31:16.585Z,78.40
2022-08-21T19:33:59.040Z,83.00
2022-08-21T19:36:30.589Z,81.00
2022-08-21T19:39:00.296Z,83.00
2022-08-21T19:41:35.507Z,81.50
2022-08-21T19:44:08.336Z,82.50
2022-08-21T19:46:42.601Z,85.80
2022-08-21T19:49:16.031Z,87.10
2022-08-21T19:51:44.506Z,86.00
2022-08-21T19:54:18.076Z,87.50
2022-08-21T19:56:47.372Z,84.70
2022-08-21T19:59:18.652Z,84.70
2022-08-21T20:01:55.465Z,86.20
2022-08-21T20:04:24.937Z,88.60
2022-08-21T20:06:55.586Z,88.60
2022-08-21T20:09:24.345Z,90.10
2022-08-21T20:11:56.009Z,90.70
2022-08-21T20:14:31.101Z,90.50
2022-08-21T20:17:04.885Z,90.10
2022-08-21T20:19:33.515Z,90.20
2022-08-21T20:22:02.771Z,91.90
2022-08-21T20:24:31.296Z,92.40
2022-08-21T20:27:06.119Z,93.50
2022-08-21T20:29:39.147Z,92.90
2022-08-21T20:32:12.289Z,93.30
2022-08-21T20:34:59.322Z,93.00
2022-08-21T20:37:36.653Z,93.60
2022-08-21T20:40:21.023Z,93.00
2022-08-21T20:42:54.817Z,93.30
2022-08-21T20:45:28.192Z,95.00
2022-08-21T20:48:08.258Z,95.20
2022-08-21T20:50:41.913Z,95.10
2022-08-21T20:53:16.100Z,95.30
2022-08-21T20:55:48.773Z,94.60
2022-08-21T20:58:29.844Z,94.60
2022-08-21T21:01:01.305Z,95.20
2022-08-21T21:03:39.443Z,96.30
2022-08-21T21:06:14.865Z,96.20
2022-08-21T21:08:48.956Z,95.80
2022-08-21T21:11:24.359Z,96.60
2022-08-21T21:13:59.808Z,96.50
2022-08-21T21:16:34.932Z,96.30
2022-08-21T21:19:12.544Z,96.80
2022-08-21T21:21:51.248Z,97.40
2022-08-21T21:27:21.278Z,96.80
2022-08-21T21:29:58.294Z,97.40
2022-08-21T21:32:29.888Z,97.40
2022-08-21T21:35:00.452Z,97.40
2022-08-21T21:37:38.892Z,97.40
2022-08-21T21:40:40.499Z,97.40
2022-08-21T21:43:25.230Z,97.40
2022-08-21T21:46:22.919Z,97.40
2022-08-21T21:49:03.169Z,97.40
2022-08-21T21:51:55.795Z,97.40
2022-08-21T21:54:52.032Z,97.40
2022-08-21T21:57:37.436Z,97.40
2022-08-21T22:00:14.477Z,97.40
2022-08-21T22:02:56.709Z,97.40
2022-08-21T22:05:50.851Z,97.40
2022-08-21T22:08:34.896Z,97.40
2022-08-21T22:11:24.389Z,97.40
2022-08-21T22:14:08.926Z,97.40
2022-08-21T22:16:38.134Z,97.40
2022-08-21T22:19:17.895Z,97.40
2022-08-21T22:21:52.646Z,97.40
2022-08-21T22:24:29.021Z,97.40
2022-08-21T22:27:04.624Z,97.40
2022-08-21T22:29:48.133Z,97.40
2022-08-21T22:32:26.722Z,97.40
2022-08-21T22:35:12.153Z,97.40
2022-08-21T22:37:44.718Z,97.40
2022-08-21T22:40:23.699Z,97.40
2022-08-21T22:43:07.491Z,97.40
2022-08-21T22:45:59.026Z,97.40
2022-08-21T22:48:32.606Z,97.40
2022-08-21T22:51:05.888Z,97.40
2022-08-21T22:53:41.059Z,97.40
2022-08-21T22:56:12.203Z,97.40
2022-08-21T22:58:54.981Z,97.40
2022-08-21T23:01:40.531Z,97.40
2022-08-21T23:04:19.419Z,97.40
2022-08-21T23:09:48.158Z,97.40
2022-08-21T23:12:34.136Z,97.40
2022-08-21T23:15:07.410Z,97.40
2022-08-21T23:17:49.654Z,97.40
2022-08-21T23:20:25.760Z,97.40
2022-08-21T23:23:09.347Z,97.40
2022-08-21T23:25:58.350Z,97.40
2022-08-21T23:29:04.684Z,97.40
2022-08-21T23:31:44.396Z,97.40
2022-08-21T23:34:25.617Z,97.40
2022-08-21T23:37:48.560Z,97.40
2022-08-21T23:40:35.537Z,97.40
2022-08-21T23:43:27.174Z,97.40
2022-08-21T23:46:33.635Z,97.40
2022-08-21T23:49:21.779Z,97.40
2022-08-21T23:52:04.840Z,97.40
2022-08-21T23:54:51.696Z,97.40
2022-08-21T23:57:36.112Z,97.40
